createdAt,value
2019-03-17T00:00:06.002Z,9.50
2019-03-17T00:01:05.041Z,9.56
2019-03-17T00:02:05.208Z,9.50
2019-03-17T00:03:05.683Z,9.50
2019-03-17T00:04:05.935Z,9.44
2019-03-17T00:05:06.069Z,9.50
2019-03-17T00:06:07.702Z,9.50
2019-03-17T00:07:05.288Z,9.50
2019-03-17T00:08:05.522Z,9.50
2019-03-17T00:09:05.194Z,9.50
2019-03-17T00:10:05.286Z,9.44
2019-03-17T00:11:05.517Z,9.44
2019-03-17T00:12:05.607Z,9.44
2019-03-17T00:13:05.678Z,9.50
2019-03-17T00:14:05.781Z,9.50
2019-03-17T00:15:06.477Z,9.50
2019-03-17T00:16:05.135Z,9.50
2019-03-17T00:17:05.662Z,9.44
2019-03-17T00:18:05.852Z,9.44
2019-03-17T00:19:05.222Z,9.44
2019-03-17T00:20:05.208Z,9.38
2019-03-17T00:21:05.443Z,9.38
2019-03-17T00:22:05.783Z,9.38
2019-03-17T00:23:05.684Z,9.38
2019-03-17T00:24:05.853Z,9.38
2019-03-17T00:25:09.404Z,9.44
2019-03-17T00:26:05.684Z,9.44
2019-03-17T00:27:05.308Z,9.38
2019-03-17T00:28:05.292Z,9.38
2019-03-17T00:29:05.514Z,9.44
2019-03-17T00:30:05.371Z,9.44
2019-03-17T00:31:05.443Z,9.44
2019-03-17T00:32:06.005Z,9.38
2019-03-17T00:33:05.756Z,9.38
2019-03-17T00:34:05.847Z,9.38
2019-03-17T00:35:05.042Z,9.38
2019-03-17T00:36:05.522Z,9.44
2019-03-17T00:37:05.188Z,9.44
2019-03-17T00:38:05.942Z,9.44
2019-03-17T00:39:05.998Z,9.44
2019-03-17T00:40:05.360Z,9.44
2019-03-17T00:41:05.619Z,9.44
2019-03-17T00:42:05.528Z,9.44
2019-03-17T00:43:06.019Z,9.44
2019-03-17T00:44:05.362Z,9.44
2019-03-17T00:45:05.988Z,9.44
2019-03-17T00:46:05.998Z,9.44
2019-03-17T00:47:05.288Z,9.44
2019-03-17T00:48:05.619Z,9.44
2019-03-17T00:49:05.631Z,9.38
2019-03-17T00:50:05.864Z,9.38
2019-03-17T00:51:05.423Z,9.38
2019-03-17T00:52:06.093Z,9.38
2019-03-17T00:53:05.611Z,9.38
2019-03-17T00:54:05.604Z,9.31
2019-03-17T00:55:05.040Z,9.31
2019-03-17T00:56:05.285Z,9.25
2019-03-17T00:57:05.691Z,9.31
2019-03-17T00:58:05.598Z,9.31
2019-03-17T00:59:05.320Z,9.31
2019-03-17T01:00:05.752Z,9.31
2019-03-17T01:01:05.198Z,9.25
2019-03-17T01:02:05.522Z,9.25
2019-03-17T01:03:05.929Z,9.25
2019-03-17T01:04:05.368Z,9.19
2019-03-17T01:05:05.446Z,9.19
2019-03-17T01:06:05.629Z,9.19
2019-03-17T01:07:05.666Z,9.12
2019-03-17T01:08:05.214Z,9.12
2019-03-17T01:09:05.850Z,9.12
2019-03-17T01:10:05.793Z,9.12
2019-03-17T01:11:05.266Z,9.12
2019-03-17T01:12:05.381Z,9.12
2019-03-17T01:13:05.443Z,9.12
2019-03-17T01:14:05.521Z,9.12
2019-03-17T01:15:05.216Z,9.12
2019-03-17T01:16:05.520Z,9.12
2019-03-17T01:17:05.687Z,9.06
2019-03-17T01:18:05.953Z,9.06
2019-03-17T01:19:06.007Z,9.06
2019-03-17T01:20:05.117Z,9.06
2019-03-17T01:21:05.451Z,9.06
2019-03-17T01:22:05.591Z,9.06
2019-03-17T01:23:05.924Z,9.06
2019-03-17T01:24:05.927Z,9.06
2019-03-17T01:25:06.073Z,9.00
2019-03-17T01:26:05.297Z,9.06
2019-03-17T01:27:05.279Z,9.06
2019-03-17T01:28:05.843Z,9.06
2019-03-17T01:29:05.273Z,9.06
2019-03-17T01:30:05.864Z,9.06
2019-03-17T01:31:05.264Z,9.00
2019-03-17T01:32:05.760Z,9.00
2019-03-17T01:33:05.124Z,9.00
2019-03-17T01:34:05.383Z,9.00
2019-03-17T01:35:09.380Z,9.00
2019-03-17T01:36:05.617Z,9.00
2019-03-17T01:37:05.661Z,9.00
2019-03-17T01:38:05.363Z,9.00
2019-03-17T01:39:05.902Z,9.00
2019-03-17T01:40:05.202Z,9.00
2019-03-17T01:41:05.754Z,9.00
2019-03-17T01:42:05.306Z,9.00
2019-03-17T01:43:05.363Z,9.00
2019-03-17T01:44:06.018Z,9.00
2019-03-17T01:45:05.678Z,9.06
2019-03-17T01:46:05.686Z,9.06
2019-03-17T01:47:05.369Z,9.06
2019-03-17T01:48:05.458Z,9.06
2019-03-17T01:49:05.607Z,9.00
2019-03-17T01:50:05.608Z,9.00
2019-03-17T01:51:05.771Z,9.00
2019-03-17T01:52:05.933Z,9.00
2019-03-17T01:53:05.231Z,9.00
2019-03-17T01:54:05.758Z,9.00
2019-03-17T01:55:05.427Z,9.00
2019-03-17T01:56:05.606Z,9.00
2019-03-17T01:57:05.036Z,9.00
2019-03-17T01:58:05.673Z,9.00
2019-03-17T01:59:06.084Z,9.00
2019-03-17T02:00:05.125Z,9.00
2019-03-17T02:01:05.846Z,9.00
2019-03-17T02:02:05.121Z,9.00
2019-03-17T02:03:05.364Z,9.00
2019-03-17T02:04:05.206Z,9.00
2019-03-17T02:05:05.290Z,9.06
2019-03-17T02:06:05.599Z,9.06
2019-03-17T02:07:05.823Z,9.00
2019-03-17T02:08:06.003Z,9.00
2019-03-17T02:09:05.438Z,9.06
2019-03-17T02:10:05.640Z,9.06
2019-03-17T02:11:05.028Z,9.06
2019-03-17T02:12:05.670Z,9.00
2019-03-17T02:13:06.003Z,9.00
2019-03-17T02:14:05.126Z,9.00
2019-03-17T02:15:05.281Z,9.00
2019-03-17T02:16:06.833Z,9.06
2019-03-17T02:17:05.116Z,9.06
2019-03-17T02:18:05.786Z,9.06
2019-03-17T02:19:05.932Z,9.06
2019-03-17T02:20:05.301Z,9.06
2019-03-17T02:21:05.462Z,9.06
2019-03-17T02:22:05.525Z,9.06
2019-03-17T02:23:05.623Z,9.06
2019-03-17T02:24:05.778Z,9.19
2019-03-17T02:25:05.831Z,9.19
2019-03-17T02:26:05.524Z,9.19
2019-03-17T02:27:05.292Z,9.12
2019-03-17T02:28:05.290Z,9.12
2019-03-17T02:29:05.355Z,9.12
2019-03-17T02:30:05.475Z,9.06
2019-03-17T02:31:06.012Z,9.06
2019-03-17T02:32:05.550Z,9.06
2019-03-17T02:33:05.534Z,9.06
2019-03-17T02:34:05.927Z,9.06
2019-03-17T02:35:05.278Z,9.06
2019-03-17T02:36:05.297Z,9.06
2019-03-17T02:37:05.370Z,9.00
2019-03-17T02:38:05.365Z,9.06
2019-03-17T02:39:05.523Z,9.00
2019-03-17T02:40:05.774Z,9.00
2019-03-17T02:41:05.283Z,9.00
2019-03-17T02:42:05.460Z,9.00
2019-03-17T02:43:05.436Z,9.06
2019-03-17T02:44:05.896Z,9.06
2019-03-17T02:45:05.119Z,9.00
2019-03-17T02:46:05.694Z,9.00
2019-03-17T02:47:05.868Z,9.00
2019-03-17T02:48:06.008Z,9.00
2019-03-17T02:49:06.062Z,9.00
2019-03-17T02:50:05.197Z,9.00
2019-03-17T02:51:05.373Z,9.00
2019-03-17T02:52:05.754Z,9.00
2019-03-17T02:53:05.520Z,9.06
2019-03-17T02:54:05.221Z,9.00
2019-03-17T02:55:05.280Z,9.00
2019-03-17T02:56:05.943Z,9.00
2019-03-17T02:57:06.101Z,9.00
2019-03-17T02:58:05.141Z,9.00
2019-03-17T02:59:05.283Z,9.00
2019-03-17T03:00:06.001Z,9.06
2019-03-17T03:01:05.287Z,9.00
2019-03-17T03:02:05.683Z,9.06
2019-03-17T03:03:05.842Z,9.00
2019-03-17T03:04:05.371Z,9.00
2019-03-17T03:05:05.545Z,9.06
2019-03-17T03:06:05.517Z,9.00
2019-03-17T03:07:05.776Z,9.00
2019-03-17T03:08:05.668Z,9.06
2019-03-17T03:09:06.102Z,9.00
2019-03-17T03:10:05.207Z,9.00
2019-03-17T03:11:05.371Z,9.00
2019-03-17T03:12:05.756Z,9.12
2019-03-17T03:13:05.944Z,9.38
2019-03-17T03:14:05.999Z,9.44
2019-03-17T03:15:06.007Z,9.44
2019-03-17T03:16:06.053Z,9.44
2019-03-17T03:17:05.784Z,9.44
2019-03-17T03:18:05.206Z,9.44
2019-03-17T03:19:05.301Z,9.44
2019-03-17T03:20:05.848Z,9.44
2019-03-17T03:21:05.372Z,9.38
2019-03-17T03:22:05.349Z,9.31
2019-03-17T03:23:05.930Z,9.31
2019-03-17T03:24:05.702Z,9.25
2019-03-17T03:25:06.011Z,9.25
2019-03-17T03:26:06.005Z,9.19
2019-03-17T03:27:05.302Z,9.19
2019-03-17T03:28:05.369Z,9.12
2019-03-17T03:29:05.622Z,9.12
2019-03-17T03:30:05.769Z,9.12
2019-03-17T03:31:05.864Z,9.12
2019-03-17T03:32:05.378Z,9.12
2019-03-17T03:33:05.623Z,9.06
2019-03-17T03:34:05.185Z,9.06
2019-03-17T03:35:05.304Z,9.06
2019-03-17T03:36:11.159Z,9.06
2019-03-17T03:37:05.354Z,9.00
2019-03-17T03:38:05.801Z,9.00
2019-03-17T03:39:05.933Z,9.00
2019-03-17T03:40:05.052Z,9.00
2019-03-17T03:41:05.197Z,9.00
2019-03-17T03:42:05.606Z,9.00
2019-03-17T03:43:05.802Z,9.00
2019-03-17T03:44:05.937Z,9.00
2019-03-17T03:45:05.949Z,9.00
2019-03-17T03:46:05.483Z,9.00
2019-03-17T03:47:05.429Z,8.94
2019-03-17T03:48:05.998Z,8.94
2019-03-17T03:49:05.299Z,8.94
2019-03-17T03:50:05.450Z,8.94
2019-03-17T03:51:05.862Z,8.94
2019-03-17T03:52:05.287Z,8.94
2019-03-17T03:53:05.958Z,8.94
2019-03-17T03:54:05.952Z,8.94
2019-03-17T03:55:05.773Z,8.94
2019-03-17T03:56:05.213Z,8.94
2019-03-17T03:57:05.935Z,8.94
2019-03-17T03:58:05.927Z,8.94
2019-03-17T03:59:05.444Z,8.88
2019-03-17T04:00:05.751Z,8.94
2019-03-17T04:01:05.221Z,8.94
2019-03-17T04:02:05.363Z,8.94
2019-03-17T04:03:05.909Z,8.94
2019-03-17T04:04:06.111Z,8.94
2019-03-17T04:05:05.213Z,8.88
2019-03-17T04:06:05.792Z,8.94
2019-03-17T04:07:05.680Z,8.94
2019-03-17T04:08:05.773Z,8.94
2019-03-17T04:09:06.003Z,8.94
2019-03-17T04:10:06.019Z,8.94
2019-03-17T04:11:05.615Z,8.94
2019-03-17T04:12:05.461Z,8.94
2019-03-17T04:13:05.520Z,8.94
2019-03-17T04:14:05.845Z,8.94
2019-03-17T04:15:05.363Z,8.94
2019-03-17T04:16:05.321Z,8.94
2019-03-17T04:17:05.449Z,8.94
2019-03-17T04:18:05.438Z,8.94
2019-03-17T04:19:05.755Z,8.94
2019-03-17T04:20:05.964Z,8.94
2019-03-17T04:21:06.013Z,8.94
2019-03-17T04:22:05.059Z,8.94
2019-03-17T04:23:05.610Z,8.94
2019-03-17T04:24:05.670Z,9.00
2019-03-17T04:25:05.923Z,9.12
2019-03-17T04:26:05.134Z,9.06
2019-03-17T04:27:05.206Z,9.06
2019-03-17T04:28:05.288Z,9.06
2019-03-17T04:29:05.428Z,9.06
2019-03-17T04:30:05.709Z,9.00
2019-03-17T04:31:05.856Z,9.00
2019-03-17T04:32:05.209Z,9.00
2019-03-17T04:33:05.505Z,9.00
2019-03-17T04:34:05.592Z,9.00
2019-03-17T04:35:05.932Z,9.00
2019-03-17T04:36:05.140Z,8.94
2019-03-17T04:37:05.779Z,8.94
2019-03-17T04:38:05.694Z,9.00
2019-03-17T04:39:05.222Z,9.00
2019-03-17T04:40:05.539Z,8.94
2019-03-17T04:41:05.861Z,8.94
2019-03-17T04:42:05.874Z,8.94
2019-03-17T04:43:05.923Z,8.88
2019-03-17T04:44:05.636Z,8.88
2019-03-17T04:45:05.779Z,8.88
2019-03-17T04:46:05.754Z,8.81
2019-03-17T04:47:06.026Z,8.81
2019-03-17T04:48:06.030Z,8.81
2019-03-17T04:49:05.041Z,8.94
2019-03-17T04:50:05.127Z,9.06
2019-03-17T04:51:05.370Z,9.12
2019-03-17T04:52:05.694Z,9.19
2019-03-17T04:53:05.264Z,9.25
2019-03-17T04:54:05.725Z,9.31
2019-03-17T04:55:05.834Z,9.31
2019-03-17T04:56:05.369Z,9.38
2019-03-17T04:57:06.037Z,9.38
2019-03-17T04:58:05.127Z,9.38
2019-03-17T04:59:05.296Z,9.38
2019-03-17T05:00:05.524Z,9.38
2019-03-17T05:01:05.200Z,9.31
2019-03-17T05:02:05.296Z,9.38
2019-03-17T05:03:05.762Z,9.31
2019-03-17T05:04:05.188Z,9.25
2019-03-17T05:05:05.458Z,9.19
2019-03-17T05:06:05.447Z,9.19
2019-03-17T05:07:05.875Z,9.12
2019-03-17T05:08:05.929Z,9.12
2019-03-17T05:09:05.449Z,9.06
2019-03-17T05:10:05.753Z,9.06
2019-03-17T05:11:06.154Z,9.06
2019-03-17T05:12:05.519Z,8.94
2019-03-17T05:13:05.933Z,8.88
2019-03-17T05:14:05.860Z,8.88
2019-03-17T05:15:05.376Z,9.00
2019-03-17T05:16:05.620Z,9.00
2019-03-17T05:17:05.356Z,8.88
2019-03-17T05:18:05.953Z,8.94
2019-03-17T05:19:05.458Z,8.94
2019-03-17T05:20:05.806Z,8.94
2019-03-17T05:21:05.944Z,8.88
2019-03-17T05:22:05.194Z,8.81
2019-03-17T05:23:05.987Z,8.69
2019-03-17T05:24:05.704Z,8.75
2019-03-17T05:25:06.442Z,8.75
2019-03-17T05:26:05.779Z,8.75
2019-03-17T05:27:05.874Z,8.69
2019-03-17T05:28:05.231Z,8.56
2019-03-17T05:29:05.295Z,8.50
2019-03-17T05:30:05.524Z,8.56
2019-03-17T05:31:06.085Z,8.50
2019-03-17T05:32:05.456Z,8.56
2019-03-17T05:33:06.081Z,8.50
2019-03-17T05:34:06.173Z,8.50
2019-03-17T05:35:06.162Z,8.44
2019-03-17T05:36:05.377Z,8.38
2019-03-17T05:37:06.747Z,8.31
2019-03-17T05:38:05.542Z,8.31
2019-03-17T05:39:06.751Z,8.44
2019-03-17T05:40:06.010Z,8.38
2019-03-17T05:41:05.976Z,8.38
2019-03-17T05:42:05.779Z,8.31
2019-03-17T05:43:05.959Z,8.25
2019-03-17T05:44:05.365Z,8.25
2019-03-17T05:45:05.960Z,8.19
2019-03-17T05:46:05.293Z,8.19
2019-03-17T05:47:05.553Z,8.25
2019-03-17T05:48:05.531Z,8.31
2019-03-17T05:49:05.772Z,8.38
2019-03-17T05:50:05.848Z,8.31
2019-03-17T05:51:05.913Z,8.38
2019-03-17T05:52:05.621Z,8.44
2019-03-17T05:53:05.688Z,8.50
2019-03-17T05:54:05.549Z,8.44
2019-03-17T05:55:05.530Z,8.44
2019-03-17T05:56:05.921Z,8.44
2019-03-17T05:57:05.204Z,8.62
2019-03-17T05:58:05.286Z,8.75
2019-03-17T05:59:05.535Z,8.75
2019-03-17T06:00:05.528Z,8.88
2019-03-17T06:01:05.129Z,9.06
2019-03-17T06:02:05.343Z,9.19
2019-03-17T06:03:05.686Z,9.38
2019-03-17T06:04:05.377Z,9.44
2019-03-17T06:05:05.519Z,9.44
2019-03-17T06:06:05.220Z,9.44
2019-03-17T06:07:17.636Z,9.44
2019-03-17T06:08:05.285Z,9.50
2019-03-17T06:09:05.748Z,9.56
2019-03-17T06:10:06.009Z,9.62
2019-03-17T06:11:05.692Z,9.81
2019-03-17T06:12:05.934Z,10.00
2019-03-17T06:13:05.991Z,10.06
2019-03-17T06:14:05.557Z,10.12
2019-03-17T06:15:05.767Z,10.19
2019-03-17T06:16:05.447Z,10.25
2019-03-17T06:17:06.169Z,10.31
2019-03-17T06:18:05.125Z,10.44
2019-03-17T06:19:05.841Z,10.50
2019-03-17T06:20:05.366Z,10.56
2019-03-17T06:21:05.451Z,10.81
2019-03-17T06:22:05.779Z,10.94
2019-03-17T06:23:05.923Z,10.94
2019-03-17T06:24:05.227Z,11.00
2019-03-17T06:25:05.761Z,11.12
2019-03-17T06:26:05.951Z,11.19
2019-03-17T06:27:05.856Z,11.25
2019-03-17T06:28:05.524Z,11.25
2019-03-17T06:29:05.596Z,11.31
2019-03-17T06:30:05.289Z,11.31
2019-03-17T06:31:05.454Z,11.31
2019-03-17T06:32:05.606Z,11.50
2019-03-17T06:33:05.771Z,11.69
2019-03-17T06:34:06.090Z,11.88
2019-03-17T06:35:05.048Z,11.88
2019-03-17T06:36:05.209Z,12.00
2019-03-17T06:37:05.692Z,12.19
2019-03-17T06:38:05.779Z,12.19
2019-03-17T06:39:05.410Z,12.31
2019-03-17T06:40:06.005Z,12.44
2019-03-17T06:41:05.209Z,12.56
2019-03-17T06:42:05.768Z,12.62
2019-03-17T06:43:05.201Z,12.75
2019-03-17T06:44:05.984Z,12.81
2019-03-17T06:45:06.111Z,12.88
2019-03-17T06:46:05.530Z,12.94
2019-03-17T06:47:06.163Z,13.06
2019-03-17T06:48:05.777Z,13.19
2019-03-17T06:49:05.915Z,13.19
2019-03-17T06:50:05.450Z,13.25
2019-03-17T06:51:05.688Z,13.25
2019-03-17T06:52:05.766Z,13.31
2019-03-17T06:53:05.777Z,13.50
2019-03-17T06:54:06.105Z,13.50
2019-03-17T06:55:05.839Z,13.50
2019-03-17T06:56:05.371Z,13.50
2019-03-17T06:57:05.538Z,13.50
2019-03-17T06:58:05.285Z,13.62
2019-03-17T06:59:05.187Z,13.75
2019-03-17T07:00:05.832Z,13.88
2019-03-17T07:01:05.051Z,14.06
2019-03-17T07:02:05.144Z,14.19
2019-03-17T07:03:05.111Z,14.25
2019-03-17T07:04:05.616Z,14.38
2019-03-17T07:05:05.694Z,14.50
2019-03-17T07:06:05.695Z,15.06
2019-03-17T07:07:05.920Z,15.25
2019-03-17T07:08:05.425Z,15.19
2019-03-17T07:09:05.506Z,15.00
2019-03-17T07:10:05.520Z,14.94
2019-03-17T07:11:05.446Z,14.81
2019-03-17T07:12:05.449Z,14.75
2019-03-17T07:13:05.382Z,14.69
2019-03-17T07:14:05.452Z,14.69
2019-03-17T07:15:05.757Z,14.69
2019-03-17T07:16:05.450Z,14.62
2019-03-17T07:17:05.436Z,14.62
2019-03-17T07:18:05.768Z,14.56
2019-03-17T07:19:05.137Z,14.56
2019-03-17T07:20:05.205Z,14.56
2019-03-17T07:21:05.199Z,14.62
2019-03-17T07:22:05.121Z,14.69
2019-03-17T07:23:05.353Z,14.69
2019-03-17T07:24:05.362Z,14.69
2019-03-17T07:25:05.836Z,14.75
2019-03-17T07:26:05.839Z,14.81
2019-03-17T07:27:05.251Z,14.81
2019-03-17T07:28:05.285Z,14.88
2019-03-17T07:29:05.827Z,14.94
2019-03-17T07:30:06.011Z,14.94
2019-03-17T07:31:05.508Z,14.94
2019-03-17T07:32:05.442Z,15.00
2019-03-17T07:33:05.518Z,15.00
2019-03-17T07:34:05.445Z,15.06
2019-03-17T07:35:05.429Z,15.06
2019-03-17T07:36:05.068Z,15.12
2019-03-17T07:37:05.035Z,15.12
2019-03-17T07:38:05.296Z,15.19
2019-03-17T07:39:11.460Z,15.25
2019-03-17T07:40:05.602Z,15.44
2019-03-17T07:41:05.122Z,15.50
2019-03-17T07:42:05.680Z,15.50
2019-03-17T07:43:05.213Z,15.50
2019-03-17T07:44:05.279Z,15.44
2019-03-17T07:45:05.354Z,15.44
2019-03-17T07:46:05.471Z,15.50
2019-03-17T07:47:05.452Z,15.56
2019-03-17T07:48:05.462Z,15.56
2019-03-17T07:49:05.363Z,15.56
2019-03-17T07:50:05.855Z,15.56
2019-03-17T07:51:05.993Z,15.56
2019-03-17T07:52:05.363Z,15.50
2019-03-17T07:53:05.525Z,15.44
2019-03-17T07:54:05.522Z,15.44
2019-03-17T07:55:05.698Z,15.44
2019-03-17T07:56:05.590Z,15.44
2019-03-17T07:57:05.618Z,15.38
2019-03-17T07:58:05.447Z,15.38
2019-03-17T07:59:05.821Z,15.25
2019-03-17T08:00:05.924Z,15.25
2019-03-17T08:01:05.045Z,15.25
2019-03-17T08:02:05.773Z,15.25
2019-03-17T08:03:05.939Z,15.31
2019-03-17T08:04:05.836Z,15.31
2019-03-17T08:05:05.904Z,15.31
2019-03-17T08:06:05.028Z,15.25
2019-03-17T08:07:05.245Z,15.25
2019-03-17T08:08:09.574Z,15.25
2019-03-17T08:09:05.276Z,15.25
2019-03-17T08:10:05.724Z,15.19
2019-03-17T08:11:05.752Z,15.25
2019-03-17T08:12:05.150Z,15.19
2019-03-17T08:13:05.349Z,15.12
2019-03-17T08:14:05.361Z,15.12
2019-03-17T08:15:05.676Z,15.12
2019-03-17T08:16:05.127Z,15.12
2019-03-17T08:17:05.852Z,15.12
2019-03-17T08:18:05.781Z,15.06
2019-03-17T08:19:05.604Z,15.00
2019-03-17T08:20:05.535Z,15.00
2019-03-17T08:21:05.525Z,15.00
2019-03-17T08:22:05.667Z,15.00
2019-03-17T08:23:05.779Z,15.00
2019-03-17T08:24:05.121Z,15.00
2019-03-17T08:25:05.442Z,15.00
2019-03-17T08:26:05.530Z,15.12
2019-03-17T08:27:05.437Z,15.06
2019-03-17T08:28:05.630Z,15.00
2019-03-17T08:29:05.755Z,14.94
2019-03-17T08:30:05.050Z,14.94
2019-03-17T08:31:05.078Z,14.88
2019-03-17T08:32:06.029Z,14.88
2019-03-17T08:33:05.188Z,14.75
2019-03-17T08:34:05.678Z,14.75
2019-03-17T08:35:05.361Z,14.81
2019-03-17T08:36:05.374Z,14.81
2019-03-17T08:37:05.183Z,14.75
2019-03-17T08:38:05.602Z,14.81
2019-03-17T08:39:05.748Z,14.81
2019-03-17T08:40:05.947Z,14.94
2019-03-17T08:41:05.758Z,15.00
2019-03-17T08:42:05.221Z,15.19
2019-03-17T08:43:05.612Z,15.19
2019-03-17T08:44:05.607Z,15.31
2019-03-17T08:45:05.680Z,15.38
2019-03-17T08:46:05.776Z,15.19
2019-03-17T08:47:05.757Z,15.06
2019-03-17T08:48:05.224Z,14.94
2019-03-17T08:49:05.056Z,14.81
2019-03-17T08:50:05.188Z,14.75
2019-03-17T08:51:05.370Z,14.69
2019-03-17T08:52:05.362Z,14.69
2019-03-17T08:53:06.007Z,14.75
2019-03-17T08:54:05.847Z,14.81
2019-03-17T08:55:05.996Z,14.88
2019-03-17T08:56:05.283Z,14.88
2019-03-17T08:57:05.932Z,14.94
2019-03-17T08:58:05.043Z,14.81
2019-03-17T08:59:05.361Z,14.75
2019-03-17T09:00:05.373Z,14.62
2019-03-17T09:01:05.383Z,14.50
2019-03-17T09:02:05.938Z,14.50
2019-03-17T09:03:05.292Z,14.44
2019-03-17T09:04:05.199Z,14.38
2019-03-17T09:05:05.222Z,14.25
2019-03-17T09:06:05.363Z,14.25
2019-03-17T09:07:05.927Z,14.19
2019-03-17T09:08:04.963Z,14.19
2019-03-17T09:09:05.119Z,14.12
2019-03-17T09:10:05.582Z,14.12
2019-03-17T09:11:05.690Z,14.06
2019-03-17T09:12:05.792Z,14.06
2019-03-17T09:13:05.140Z,14.06
2019-03-17T09:14:05.128Z,14.00
2019-03-17T09:15:05.117Z,14.00
2019-03-17T09:16:04.976Z,14.00
2019-03-17T09:17:13.989Z,14.00
2019-03-17T09:18:05.043Z,14.00
2019-03-17T09:19:05.361Z,14.00
2019-03-17T09:20:05.438Z,14.00
2019-03-17T09:21:05.519Z,13.94
2019-03-17T09:22:05.532Z,13.94
2019-03-17T09:23:05.863Z,13.88
2019-03-17T09:24:16.503Z,13.88
2019-03-17T09:25:05.846Z,13.81
2019-03-17T09:26:05.903Z,13.81
2019-03-17T09:27:05.123Z,13.81
2019-03-17T09:28:05.195Z,13.81
2019-03-17T09:29:05.346Z,13.81
2019-03-17T09:30:05.859Z,13.81
2019-03-17T09:31:07.367Z,13.75
2019-03-17T09:32:05.932Z,13.75
2019-03-17T09:33:05.428Z,13.75
2019-03-17T09:34:05.759Z,13.75
2019-03-17T09:35:05.442Z,13.75
2019-03-17T09:36:05.296Z,13.75
2019-03-17T09:37:05.599Z,13.75
2019-03-17T09:38:05.618Z,13.75
2019-03-17T09:39:05.524Z,13.75
2019-03-17T09:40:05.621Z,13.75
2019-03-17T09:41:05.510Z,13.75
2019-03-17T09:42:05.426Z,13.69
2019-03-17T09:43:05.604Z,13.69
2019-03-17T09:44:06.004Z,13.69
2019-03-17T09:45:05.900Z,13.69
2019-03-17T09:46:05.527Z,13.62
2019-03-17T09:47:05.562Z,13.62
2019-03-17T09:48:05.520Z,13.62
2019-03-17T09:49:05.607Z,13.56
2019-03-17T09:50:05.614Z,13.56
2019-03-17T09:51:05.134Z,13.56
2019-03-17T09:52:05.059Z,13.56
2019-03-17T09:53:05.049Z,13.56
2019-03-17T09:54:05.142Z,13.56
2019-03-17T09:55:05.149Z,13.56
2019-03-17T09:56:05.223Z,13.56
2019-03-17T09:57:05.748Z,13.56
2019-03-17T09:58:05.762Z,13.56
2019-03-17T09:59:05.280Z,13.56
2019-03-17T10:00:05.368Z,13.62
2019-03-17T10:01:05.749Z,13.62
2019-03-17T10:02:05.943Z,13.62
2019-03-17T10:03:05.919Z,13.62
2019-03-17T10:04:05.919Z,13.62
2019-03-17T10:05:05.925Z,13.62
2019-03-17T10:06:05.141Z,13.69
2019-03-17T10:07:05.036Z,13.69
2019-03-17T10:08:05.041Z,13.69
2019-03-17T10:09:05.188Z,13.69
2019-03-17T10:10:05.603Z,13.69
2019-03-17T10:11:05.670Z,13.75
2019-03-17T10:12:05.602Z,13.75
2019-03-17T10:13:05.039Z,13.69
2019-03-17T10:14:05.036Z,13.69
2019-03-17T10:15:05.589Z,13.69
2019-03-17T10:16:05.601Z,13.69
2019-03-17T10:17:05.143Z,13.69
2019-03-17T10:18:05.914Z,13.75
2019-03-17T10:19:05.111Z,13.75
2019-03-17T10:20:05.362Z,13.75
2019-03-17T10:21:05.917Z,13.75
2019-03-17T10:22:05.442Z,13.75
2019-03-17T10:23:04.946Z,13.75
2019-03-17T10:24:05.046Z,13.75
2019-03-17T10:25:05.041Z,13.75
2019-03-17T10:26:04.960Z,13.81
2019-03-17T10:27:05.035Z,13.81
2019-03-17T10:28:05.023Z,13.81
2019-03-17T10:29:05.128Z,13.81
2019-03-17T10:30:05.048Z,13.81
2019-03-17T10:31:05.204Z,13.81
2019-03-17T10:32:05.209Z,13.81
2019-03-17T10:33:05.642Z,13.81
2019-03-17T10:34:05.614Z,13.81
2019-03-17T10:35:05.506Z,13.81
2019-03-17T10:36:05.923Z,13.81
2019-03-17T10:37:05.364Z,13.88
2019-03-17T10:38:05.606Z,13.88
2019-03-17T10:39:12.171Z,13.94
2019-03-17T10:40:05.209Z,13.94
2019-03-17T10:41:05.107Z,13.94
2019-03-17T10:42:05.103Z,13.94
2019-03-17T10:43:05.209Z,13.94
2019-03-17T10:44:05.602Z,13.94
2019-03-17T10:45:05.212Z,13.94
2019-03-17T10:46:05.032Z,13.94
2019-03-17T10:47:05.291Z,13.94
2019-03-17T10:48:05.214Z,13.94
2019-03-17T10:49:05.200Z,13.94
2019-03-17T10:50:05.358Z,14.00
2019-03-17T10:51:05.525Z,14.00
2019-03-17T10:52:05.941Z,14.00
2019-03-17T10:53:05.108Z,14.00
2019-03-17T10:54:05.203Z,14.00
2019-03-17T10:55:05.123Z,14.00
2019-03-17T10:56:05.776Z,14.00
2019-03-17T10:57:05.844Z,13.94
2019-03-17T10:58:05.772Z,13.94
2019-03-17T10:59:06.755Z,13.94
2019-03-17T11:00:05.072Z,13.94
2019-03-17T11:01:05.034Z,14.00
2019-03-17T11:02:05.152Z,14.00
2019-03-17T11:03:04.970Z,14.06
2019-03-17T11:04:04.985Z,14.06
2019-03-17T11:05:05.385Z,14.06
2019-03-17T11:06:05.529Z,14.12
2019-03-17T11:07:05.126Z,14.12
2019-03-17T11:08:05.536Z,14.19
2019-03-17T11:09:05.925Z,14.19
2019-03-17T11:10:05.127Z,14.25
2019-03-17T11:11:05.745Z,14.25
2019-03-17T11:12:05.616Z,14.31
2019-03-17T11:13:05.441Z,14.31
2019-03-17T11:14:05.840Z,14.31
2019-03-17T11:15:05.120Z,14.38
2019-03-17T11:16:05.367Z,14.38
2019-03-17T11:17:05.436Z,14.38
2019-03-17T11:18:05.854Z,14.31
2019-03-17T11:19:05.758Z,14.31
2019-03-17T11:20:05.759Z,14.31
2019-03-17T11:21:05.846Z,14.31
2019-03-17T11:22:06.015Z,14.31
2019-03-17T11:23:06.015Z,14.38
2019-03-17T11:24:05.760Z,14.38
2019-03-17T11:25:05.282Z,14.38
2019-03-17T11:26:05.362Z,14.38
2019-03-17T11:27:05.904Z,14.38
2019-03-17T11:28:06.005Z,14.44
2019-03-17T11:29:05.203Z,14.50
2019-03-17T11:30:05.304Z,14.56
2019-03-17T11:31:05.194Z,14.62
2019-03-17T11:32:06.644Z,14.62
2019-03-17T11:33:05.290Z,14.69
2019-03-17T11:34:05.125Z,14.69
2019-03-17T11:35:05.375Z,14.69
2019-03-17T11:36:05.290Z,14.69
2019-03-17T11:37:05.273Z,14.69
2019-03-17T11:38:05.600Z,14.69
2019-03-17T11:39:05.597Z,14.69
2019-03-17T11:40:05.289Z,14.75
2019-03-17T11:41:05.601Z,14.75
2019-03-17T11:42:05.520Z,14.75
2019-03-17T11:43:04.961Z,14.81
2019-03-17T11:44:05.520Z,14.81
2019-03-17T11:45:05.907Z,14.81
2019-03-17T11:46:05.926Z,14.88
2019-03-17T11:47:05.838Z,14.88
2019-03-17T11:48:06.011Z,14.88
2019-03-17T11:49:05.915Z,14.88
2019-03-17T11:50:05.444Z,14.88
2019-03-17T11:51:05.448Z,14.88
2019-03-17T11:52:05.526Z,14.88
2019-03-17T11:53:05.035Z,14.81
2019-03-17T11:54:05.922Z,14.81
2019-03-17T11:55:05.143Z,14.81
2019-03-17T11:56:05.123Z,14.81
2019-03-17T11:57:05.205Z,14.75
2019-03-17T11:58:05.213Z,14.75
2019-03-17T11:59:05.212Z,14.75
2019-03-17T12:00:05.216Z,14.75
2019-03-17T12:01:05.198Z,14.69
2019-03-17T12:02:05.128Z,14.69
2019-03-17T12:03:05.223Z,14.69
2019-03-17T12:04:05.113Z,14.75
2019-03-17T12:05:05.677Z,14.75
2019-03-17T12:06:05.285Z,14.81
2019-03-17T12:07:05.282Z,14.81
2019-03-17T12:08:05.584Z,14.81
2019-03-17T12:09:05.074Z,14.81
2019-03-17T12:10:05.042Z,14.81
2019-03-17T12:11:05.138Z,14.81
2019-03-17T12:12:05.201Z,14.88
2019-03-17T12:13:05.502Z,14.81
2019-03-17T12:14:05.669Z,14.88
2019-03-17T12:15:05.283Z,14.88
2019-03-17T12:16:05.216Z,14.88
2019-03-17T12:17:05.456Z,14.94
2019-03-17T12:18:05.295Z,14.88
2019-03-17T12:19:05.533Z,14.88
2019-03-17T12:20:05.512Z,14.88
2019-03-17T12:21:04.950Z,14.88
2019-03-17T12:22:09.218Z,14.94
2019-03-17T12:23:05.953Z,14.94
2019-03-17T12:24:05.834Z,14.94
2019-03-17T12:25:05.851Z,14.94
2019-03-17T12:26:05.754Z,14.94
2019-03-17T12:27:05.271Z,14.94
2019-03-17T12:28:05.610Z,14.94
2019-03-17T12:29:05.524Z,14.94
2019-03-17T12:30:05.673Z,14.88
2019-03-17T12:31:05.768Z,14.88
2019-03-17T12:32:05.123Z,14.88
2019-03-17T12:33:05.041Z,14.88
2019-03-17T12:34:05.292Z,14.88
2019-03-17T12:35:05.226Z,14.88
2019-03-17T12:36:05.139Z,14.88
2019-03-17T12:37:05.045Z,14.88
2019-03-17T12:38:05.524Z,14.88
2019-03-17T12:39:05.916Z,14.88
2019-03-17T12:40:05.465Z,14.88
2019-03-17T12:41:05.587Z,14.88
2019-03-17T12:42:05.587Z,14.88
2019-03-17T12:43:05.043Z,14.88
2019-03-17T12:44:05.682Z,14.88
2019-03-17T12:45:05.701Z,14.81
2019-03-17T12:46:05.753Z,14.81
2019-03-17T12:47:05.129Z,14.75
2019-03-17T12:48:05.122Z,14.75
2019-03-17T12:49:05.596Z,14.75
2019-03-17T12:50:05.849Z,14.69
2019-03-17T12:51:05.936Z,14.69
2019-03-17T12:52:05.908Z,14.62
2019-03-17T12:53:07.813Z,14.62
2019-03-17T12:54:05.424Z,14.62
2019-03-17T12:55:05.831Z,14.56
2019-03-17T12:56:05.853Z,14.56
2019-03-17T12:57:05.821Z,14.50
2019-03-17T12:58:05.470Z,14.50
2019-03-17T12:59:05.277Z,14.44
2019-03-17T13:00:05.768Z,14.44
2019-03-17T13:01:05.847Z,14.44
2019-03-17T13:02:05.671Z,14.44
2019-03-17T13:03:05.853Z,14.38
2019-03-17T13:04:05.851Z,14.38